Lundu, Malaysia
Current Conditions -  °F | °C
As of 2:00 PM on Monday 26 Jan 2015 (Local Time) from WBGG Reporting Station
Broken Clouds Broken Clouds  
Wind Chill: 84°   Ceiling: 15000
Heat Index: 91°   Visibility: 6mi
Dew Point: 73°   Wind: 6mph
Humidity: 70%   Direction: 330°NNW
Pressure: 29.88"   Gusts: NA
Location:  1.68°N, 109.85°E
Report Text: WBGG 260600Z 33005KT 290V050 9999 SCT020 BKN150 29/23 Q1012 NOSIG
Loading
Personal Weather Stations






























Interactive Weather Map New forecast layout! Learn more

10-Day Weather Forecast

Advertisements
Track Severe Weather on mobile